Time;durP1;ratioP1;P1;durP2;ratioP2;P2;SDS_P1;SDS_P2;PMS_P1;PMS_P2;Temp;Humidity;BMP_temperature;BMP_pressure;BME280_temperature;BME280_humidity;BME280_pressure;Samples;Min_cycle;Max_cycle;Signal;HPM_P1;HPM_P2
2020/12/10 00:00:24;;;;;;;28.90;12.17;;;;;;;-0.10;88.11;98363.34;5054738;28;20056;-78
2020/12/10 00:02:50;;;;;;;24.63;12.57;;;;;;;-0.03;88.56;98368.97;5055729;28;20057;-78
2020/12/10 00:05:17;;;;;;;30.13;13.97;;;;;;;0.11;88.53;98375.78;5055176;28;20064;-78
2020/12/10 00:07:44;;;;;;;30.90;13.25;;;;;;;-0.01;88.63;98367.03;5055011;28;20702;-78
2020/12/10 00:10:10;;;;;;;24.80;11.93;;;;;;;-0.12;88.66;98356.44;5059752;28;20045;-78
2020/12/10 00:12:40;;;;;;;27.93;12.77;;;;;;;-0.15;88.77;98362.91;5054813;28;20538;-77
2020/12/10 00:15:06;;;;;;;25.67;12.77;;;;;;;-0.15;88.88;98364.72;5052796;28;20120;-78
2020/12/10 00:17:33;;;;;;;28.93;13.17;;;;;;;-0.12;89.35;98364.44;5061319;28;20041;-78
2020/12/10 00:20:00;;;;;;;24.43;12.33;;;;;;;-0.03;89.15;98361.81;5060348;28;20064;-78
2020/12/10 00:22:27;;;;;;;29.50;13.93;;;;;;;-0.03;89.54;98361.81;5059913;28;20049;-78
2020/12/10 00:24:53;;;;;;;24.83;12.77;;;;;;;0.05;88.06;98365.63;5063322;28;20094;-77
2020/12/10 00:27:24;;;;;;;31.17;12.93;;;;;;;-0.10;89.13;98343.81;5060371;28;20061;-78
2020/12/10 00:29:51;;;;;;;28.67;13.83;;;;;;;-0.07;87.94;98349.72;5060776;28;20056;-78
2020/12/10 00:32:18;;;;;;;30.27;12.97;;;;;;;0.01;87.64;98357.03;5067086;28;20051;-77
2020/12/10 00:34:46;;;;;;;25.57;12.67;;;;;;;-0.19;86.79;98316.91;5061610;28;20671;-78
2020/12/10 00:37:13;;;;;;;28.47;13.20;;;;;;;-0.20;87.12;98315.25;5059857;28;20056;-78
2020/12/10 00:39:39;;;;;;;27.48;13.43;;;;;;;-0.02;88.37;98336.75;5056733;28;20049;-78
2020/12/10 00:42:06;;;;;;;22.53;11.60;;;;;;;-0.09;87.91;98332.13;5060815;28;20455;-78
2020/12/10 00:44:33;;;;;;;25.43;12.93;;;;;;;0.05;87.32;98349.59;5056461;28;20106;-78
2020/12/10 00:46:59;;;;;;;27.67;13.00;;;;;;;-0.07;88.64;98320.31;5057498;28;20048;-78
2020/12/10 00:49:26;;;;;;;25.23;12.87;;;;;;;-0.10;88.45;98309.91;5059917;28;20489;-78
2020/12/10 00:51:54;;;;;;;31.43;13.20;;;;;;;-0.11;89.17;98318.88;5055098;28;20110;-78
2020/12/10 00:54:21;;;;;;;26.43;13.40;;;;;;;-0.10;88.88;98341.97;5061130;28;20041;-78
2020/12/10 00:56:47;;;;;;;29.47;13.53;;;;;;;-0.10;89.31;98325.09;5071921;28;20049;-77
2020/12/10 00:59:14;;;;;;;27.50;13.57;;;;;;;-0.04;89.29;98327.22;5061399;28;20041;-78
2020/12/10 01:01:43;;;;;;;32.67;14.40;;;;;;;0.04;88.66;98331.88;5049652;28;20421;-78
2020/12/10 01:04:09;;;;;;;27.87;12.63;;;;;;;-0.14;89.18;98324.50;5062601;28;20060;-78
2020/12/10 01:06:35;;;;;;;30.03;13.73;;;;;;;-0.08;89.47;98334.66;5061094;28;20049;-78
2020/12/10 01:09:05;;;;;;;31.90;13.50;;;;;;;-0.15;89.94;98335.34;5054335;28;20532;-78
2020/12/10 01:11:31;;;;;;;25.73;12.25;;;;;;;-0.10;88.90;98330.44;5057678;28;20036;-78
2020/12/10 01:13:57;;;;;;;24.37;11.23;;;;;;;-0.17;89.19;98323.94;5064632;28;20049;-77
2020/12/10 01:16:24;;;;;;;27.07;12.07;;;;;;;-0.16;89.41;98322.97;5058785;28;20040;-77
2020/12/10 01:18:50;;;;;;;27.43;12.70;;;;;;;-0.22;89.18;98319.03;5047687;28;20094;-78
2020/12/10 01:21:27;;;;;;;28.70;13.13;;;;;;;-0.15;89.77;98320.16;5065306;28;20041;-78
2020/12/10 01:23:53;;;;;;;24.80;12.53;;;;;;;-0.20;89.07;98325.94;5060203;28;20045;-78
2020/12/10 01:26:20;;;;;;;26.40;13.00;;;;;;;-0.20;87.86;98312.56;5062988;28;21533;-78
2020/12/10 01:28:46;;;;;;;28.23;13.80;;;;;;;-0.07;87.56;98322.16;5061831;28;20091;-78
2020/12/10 01:31:13;;;;;;;23.27;11.77;;;;;;;-0.12;87.60;98322.56;5063195;28;20049;-78
2020/12/10 01:33:39;;;;;;;28.03;12.03;;;;;;;-0.11;88.33;98321.56;5058603;28;20084;-78
2020/12/10 01:36:05;;;;;;;30.57;13.37;;;;;;;-0.11;89.23;98323.41;5052913;28;20090;-78
2020/12/10 01:38:31;;;;;;;28.37;13.30;;;;;;;-0.16;89.49;98306.94;5055936;28;20090;-78
2020/12/10 01:40:58;;;;;;;32.57;12.93;;;;;;;-0.20;89.31;98309.03;5063277;28;20091;-78
2020/12/10 01:43:25;;;;;;;22.53;11.20;;;;;;;-0.32;89.55;98286.09;5058008;28;20048;-77
2020/12/10 01:45:51;;;;;;;27.30;12.53;;;;;;;-0.13;89.07;98309.34;5066668;28;20102;-78
2020/12/10 01:48:17;;;;;;;25.13;11.53;;;;;;;-0.06;89.41;98305.97;5068022;28;20069;-78
2020/12/10 01:50:44;;;;;;;22.53;10.77;;;;;;;-0.08;89.64;98315.94;5047874;28;20118;-78
2020/12/10 01:53:11;;;;;;;27.30;11.43;;;;;;;-0.25;89.43;98290.75;5058646;28;20049;-78
2020/12/10 01:55:37;;;;;;;24.93;12.73;;;;;;;-0.14;90.12;98302.31;5058482;28;20049;-78
2020/12/10 01:58:06;;;;;;;24.77;11.63;;;;;;;-0.21;89.30;98302.88;5062539;28;20079;-78
2020/12/10 02:00:33;;;;;;;33.10;12.93;;;;;;;-0.12;89.87;98300.31;5066217;28;20102;-78
2020/12/10 02:03:00;;;;;;;30.07;14.20;;;;;;;-0.12;89.24;98278.94;5069202;28;20094;-78
2020/12/10 02:05:26;;;;;;;26.27;11.60;;;;;;;-0.02;89.64;98285.16;5064584;28;20079;-78
2020/12/10 02:07:52;;;;;;;20.70;11.57;;;;;;;-0.06;89.28;98278.41;5072582;28;20488;-78
2020/12/10 02:10:18;;;;;;;25.80;11.10;;;;;;;-0.05;88.02;98266.72;5062240;28;20102;-78
2020/12/10 02:12:45;;;;;;;31.93;12.97;;;;;;;-0.01;87.43;98286.84;5067546;28;20049;-77
2020/12/10 02:15:11;;;;;;;29.67;11.87;;;;;;;-0.13;89.59;98267.44;5053601;28;20630;-78
2020/12/10 02:17:38;;;;;;;23.37;12.27;;;;;;;-0.20;89.38;98261.81;5068967;28;20488;-78
2020/12/10 02:20:05;;;;;;;26.37;12.23;;;;;;;-0.20;89.64;98261.81;5055928;28;20061;-78
2020/12/10 02:22:32;;;;;;;22.93;11.50;;;;;;;-0.14;90.23;98270.25;5059625;28;20381;-77
2020/12/10 02:24:59;;;;;;;28.53;12.90;;;;;;;-0.17;90.09;98271.34;5072700;28;20110;-78
2020/12/10 02:27:25;;;;;;;29.47;13.17;;;;;;;-0.14;90.98;98275.59;5066132;28;20102;-78
2020/12/10 02:29:52;;;;;;;24.00;11.57;;;;;;;-0.15;90.17;98257.84;5056545;28;20048;-77
2020/12/10 02:32:18;;;;;;;28.00;12.60;;;;;;;-0.16;90.41;98262.38;5065298;28;20087;-77
2020/12/10 02:34:44;;;;;;;26.37;12.40;;;;;;;-0.14;90.19;98259.56;5054093;28;20087;-78
2020/12/10 02:37:10;;;;;;;27.50;11.87;;;;;;;-0.09;90.07;98262.66;5057453;28;20048;-78
2020/12/10 02:39:37;;;;;;;25.97;12.37;;;;;;;-0.21;90.10;98248.56;5067070;28;20044;-78
2020/12/10 02:42:04;;;;;;;24.97;12.10;;;;;;;-0.19;89.25;98250.13;5071540;28;20053;-77
2020/12/10 02:44:30;;;;;;;25.93;11.70;;;;;;;-0.07;89.34;98266.03;5057451;28;20044;-78
2020/12/10 02:46:56;;;;;;;26.80;12.47;;;;;;;-0.16;90.07;98259.69;5057646;28;20045;-78
2020/12/10 02:49:22;;;;;;;31.87;14.53;;;;;;;-0.20;89.43;98258.28;5062794;28;20101;-78
2020/12/10 02:51:49;;;;;;;24.30;11.20;;;;;;;-0.16;90.14;98250.84;5066595;28;21484;-78
2020/12/10 02:54:15;;;;;;;27.90;12.60;;;;;;;-0.16;90.55;98249.00;5060866;28;20040;-78
2020/12/10 02:56:42;;;;;;;23.67;11.67;;;;;;;-0.12;90.05;98249.56;5066693;28;20098;-77
2020/12/10 02:59:09;;;;;;;30.93;13.13;;;;;;;-0.17;90.17;98241.13;5055572;28;20060;-78
2020/12/10 03:01:35;;;;;;;32.17;13.73;;;;;;;-0.14;89.98;98240.84;5062205;28;20044;-78
2020/12/10 03:04:02;;;;;;;25.67;12.87;;;;;;;-0.20;89.66;98224.41;5065923;28;20107;-78
2020/12/10 03:06:29;;;;;;;33.57;13.60;;;;;;;-0.12;90.00;98222.84;5061200;28;20064;-78
2020/12/10 03:08:55;;;;;;;26.00;11.30;;;;;;;-0.17;90.07;98212.59;5063979;28;20049;-78
2020/12/10 03:11:21;;;;;;;29.30;12.57;;;;;;;-0.15;89.72;98215.97;5056758;28;20053;-78
2020/12/10 03:13:47;;;;;;;27.70;11.90;;;;;;;-0.17;89.35;98222.44;5069971;28;20045;-78
2020/12/10 03:16:14;;;;;;;28.30;13.30;;;;;;;-0.07;88.73;98216.09;5066258;28;20460;-77
2020/12/10 03:18:41;;;;;;;24.87;11.50;;;;;;;-0.17;88.85;98206.41;5059202;28;20071;-78
2020/12/10 03:21:07;;;;;;;25.97;13.23;;;;;;;-0.21;89.05;98196.00;5067849;28;20452;-77
2020/12/10 03:23:33;;;;;;;27.30;11.10;;;;;;;-0.16;89.00;98211.59;5061343;28;20041;-77
2020/12/10 03:25:59;;;;;;;26.43;11.50;;;;;;;-0.17;89.64;98201.06;5057579;28;20078;-78
2020/12/10 03:28:26;;;;;;;31.17;13.10;;;;;;;-0.23;90.35;98194.44;5060357;28;20095;-78
2020/12/10 03:30:52;;;;;;;28.30;12.70;;;;;;;-0.19;89.58;98194.03;5059228;28;20574;-78
2020/12/10 03:33:19;;;;;;;29.57;12.73;;;;;;;-0.08;89.05;98186.84;5065016;28;20439;-78
2020/12/10 03:35:45;;;;;;;29.33;12.60;;;;;;;-0.09;89.08;98190.50;5062799;28;20114;-78
2020/12/10 03:38:11;;;;;;;30.47;13.23;;;;;;;-0.16;89.04;98179.56;5066624;28;20098;-78
2020/12/10 03:40:38;;;;;;;33.23;13.50;;;;;;;-0.17;90.13;98188.53;5056936;28;20052;-78
2020/12/10 03:43:04;;;;;;;26.87;12.90;;;;;;;-0.21;90.43;98181.78;5066440;28;20067;-78
2020/12/10 03:45:30;;;;;;;26.53;11.40;;;;;;;-0.19;90.02;98177.16;5071698;28;20053;-78
2020/12/10 03:47:56;;;;;;;26.50;12.10;;;;;;;-0.24;89.34;98164.22;5048638;28;20102;-78
2020/12/10 03:50:24;;;;;;;33.60;14.17;;;;;;;-0.13;89.22;98173.94;5058708;28;20073;-78
2020/12/10 03:52:50;;;;;;;24.50;11.97;;;;;;;-0.07;89.31;98170.69;5063571;28;20109;-78
2020/12/10 03:55:16;;;;;;;28.03;12.17;;;;;;;-0.26;89.57;98154.66;5065957;28;20044;-78
2020/12/10 03:57:42;;;;;;;26.93;13.00;;;;;;;-0.16;90.05;98171.53;5068005;28;20048;-78
2020/12/10 04:00:09;;;;;;;30.60;12.63;;;;;;;-0.22;89.91;98150.72;5062952;28;20052;-78
2020/12/10 04:02:35;;;;;;;28.50;12.67;;;;;;;-0.30;89.82;98143.44;5063854;28;20049;-78
2020/12/10 04:05:01;;;;;;;32.27;13.50;;;;;;;-0.17;89.87;98158.31;5059233;28;20562;-78
2020/12/10 04:07:28;;;;;;;28.10;12.97;;;;;;;-0.16;88.71;98158.19;5058977;28;20104;-78
2020/12/10 04:09:54;;;;;;;24.30;12.00;;;;;;;-0.16;88.77;98160.84;5066975;28;20055;-77
2020/12/10 04:12:21;;;;;;;28.20;11.90;;;;;;;-0.24;89.83;98153.53;5057389;28;20056;-77
2020/12/10 04:14:47;;;;;;;23.30;11.37;;;;;;;-0.20;90.29;98157.63;5063171;28;20603;-78
2020/12/10 04:17:13;;;;;;;22.93;11.63;;;;;;;-0.26;89.74;98158.16;5060996;28;20462;-77
2020/12/10 04:19:39;;;;;;;27.30;11.37;;;;;;;-0.22;89.80;98150.72;5055493;28;20458;-77
2020/12/10 04:22:06;;;;;;;28.83;12.27;;;;;;;-0.16;90.31;98166.19;5060825;28;20551;-77
2020/12/10 04:24:33;;;;;;;27.57;11.90;;;;;;;-0.21;90.14;98155.06;5061335;28;20078;-77
2020/12/10 04:26:59;;;;;;;29.17;13.30;;;;;;;-0.07;89.73;98161.84;5062516;28;20110;-77
2020/12/10 04:29:25;;;;;;;25.30;12.07;;;;;;;-0.14;89.51;98150.84;5057164;28;20045;-78
2020/12/10 04:31:52;;;;;;;27.30;12.23;;;;;;;-0.21;89.94;98147.06;5070595;28;20045;-77
2020/12/10 04:34:18;;;;;;;27.53;12.53;;;;;;;-0.28;90.41;98145.97;5062920;28;20066;-77
2020/12/10 04:36:47;;;;;;;28.97;13.27;;;;;;;-0.21;89.88;98145.25;5060738;28;20049;-77
2020/12/10 04:39:13;;;;;;;29.23;12.43;;;;;;;-0.13;89.99;98152.56;5056615;28;20051;-78
2020/12/10 04:41:41;;;;;;;20.87;10.73;;;;;;;-0.20;90.06;98151.44;5061356;28;20056;-78
2020/12/10 04:44:07;;;;;;;28.03;11.63;;;;;;;-0.29;90.29;98147.75;5063621;28;20052;-78
2020/12/10 04:46:38;;;;;;;27.50;12.50;;;;;;;-0.19;89.92;98147.78;5058907;28;20045;-78
2020/12/10 04:49:05;;;;;;;25.07;12.07;;;;;;;-0.29;89.57;98134.41;5057568;28;20040;-78
2020/12/10 04:51:33;;;;;;;31.50;11.90;;;;;;;-0.14;89.89;98158.88;5057920;28;20049;-78
2020/12/10 04:54:01;;;;;;;28.33;12.63;;;;;;;-0.23;89.59;98151.72;5063373;28;20049;-78
2020/12/10 04:56:28;;;;;;;27.30;12.27;;;;;;;-0.21;90.32;98144.38;5058119;28;20041;-79
2020/12/10 04:58:55;;;;;;;22.67;11.63;;;;;;;-0.13;90.57;98149.88;5065523;28;20044;-78
2020/12/10 05:01:22;;;;;;;26.93;11.30;;;;;;;-0.19;89.83;98143.28;5059838;28;20122;-77
2020/12/10 05:03:48;;;;;;;27.27;12.57;;;;;;;-0.24;88.72;98123.31;5054440;28;20048;-78
2020/12/10 05:06:16;;;;;;;25.23;11.57;;;;;;;-0.07;89.37;98148.47;5064918;28;20041;-77
2020/12/10 05:08:44;;;;;;;27.97;12.33;;;;;;;-0.04;89.16;98153.53;5064206;28;20497;-78
2020/12/10 05:11:10;;;;;;;26.73;12.10;;;;;;;-0.08;89.20;98142.25;5056845;28;20049;-78
2020/12/10 05:13:37;;;;;;;29.07;13.17;;;;;;;-0.05;88.43;98147.31;5059544;28;20106;-78
2020/12/10 05:16:04;;;;;;;28.67;12.50;;;;;;;-0.16;88.41;98128.78;5061698;28;20094;-79
2020/12/10 05:18:31;;;;;;;31.63;14.30;;;;;;;-0.07;88.19;98130.59;5069933;28;20052;-78
2020/12/10 05:20:58;;;;;;;29.57;12.67;;;;;;;-0.07;88.85;98137.78;5063558;28;20052;-78
2020/12/10 05:23:33;;;;;;;34.87;13.63;;;;;;;-0.01;88.28;98150.56;5067832;28;20071;-78
2020/12/10 05:26:04;;;;;;;30.57;14.00;;;;;;;-0.09;87.78;98121.91;5068650;28;20107;-78
2020/12/10 05:28:40;;;;;;;36.70;14.97;;;;;;;0.03;87.58;98133.28;5068666;28;20412;-78
2020/12/10 05:31:09;;;;;;;28.60;13.60;;;;;;;-0.20;87.83;98112.22;5063728;28;20053;-78
2020/12/10 05:33:36;;;;;;;36.30;16.17;;;;;;;-0.06;87.91;98136.78;5055902;28;20040;-79
2020/12/10 05:36:07;;;;;;;31.60;14.33;;;;;;;-0.20;88.38;98116.69;5064518;28;20051;-79
2020/12/10 05:38:33;;;;;;;31.63;13.60;;;;;;;-0.25;87.83;98105.59;5065373;28;20056;-79
2020/12/10 05:41:19;;;;;;;32.57;14.90;;;;;;;-0.19;88.66;98121.06;5069128;28;20060;-79
2020/12/10 05:43:45;;;;;;;32.87;13.90;;;;;;;-0.33;88.95;98113.47;5063915;28;20439;-79
2020/12/10 05:46:17;;;;;;;31.17;12.83;;;;;;;-0.32;88.15;98105.31;5057539;28;20052;-79
2020/12/10 05:48:45;;;;;;;27.47;12.60;;;;;;;-0.14;88.25;98136.66;5061247;28;20044;-79
2020/12/10 05:51:16;;;;;;;29.83;13.00;;;;;;;-0.20;88.64;98130.06;5062403;28;20048;-78
2020/12/10 05:53:43;;;;;;;33.87;13.00;;;;;;;-0.32;89.38;98104.47;5065692;28;20128;-78
2020/12/10 05:56:12;;;;;;;29.03;13.83;;;;;;;-0.38;88.96;98087.19;5061840;28;20051;-79
2020/12/10 05:58:52;;;;;;;38.33;14.30;;;;;;;-0.11;88.44;98129.19;5062748;28;20045;-79
2020/12/10 06:01:27;;;;;;;31.13;14.30;;;;;;;-0.21;88.12;98118.53;5065111;28;20045;-79
2020/12/10 06:03:54;;;;;;;33.73;15.10;;;;;;;-0.24;88.55;98131.31;5065202;28;20082;-79
2020/12/10 06:06:22;;;;;;;38.80;14.83;;;;;;;-0.13;89.33;98128.50;5062424;28;20060;-79
2020/12/10 06:08:50;;;;;;;38.80;14.57;;;;;;;-0.29;89.22;98117.56;5059942;28;20049;-79
2020/12/10 06:11:20;;;;;;;36.47;13.83;;;;;;;-0.39;88.94;98102.38;5057593;28;20084;-79
2020/12/10 06:13:47;;;;;;;32.50;14.88;;;;;;;-0.16;89.45;98119.94;5058499;28;20374;-79
2020/12/10 06:16:17;;;;;;;36.37;15.77;;;;;;;-0.14;88.88;98120.63;5057012;28;20037;-79
2020/12/10 06:19:04;;;;;;;36.37;15.00;;;;;;;-0.25;89.05;98094.94;5058028;28;20048;-79
2020/12/10 06:21:43;;;;;;;39.37;15.27;;;;;;;-0.10;88.51;98112.19;5058882;28;20056;-79
2020/12/10 06:24:34;;;;;;;36.23;14.40;;;;;;;-0.27;88.89;98103.09;5058511;28;20048;-79
2020/12/10 06:27:01;;;;;;;39.00;14.83;;;;;;;-0.15;88.93;98117.13;5058005;28;20044;-79
2020/12/10 06:29:29;;;;;;;41.83;16.00;;;;;;;-0.33;88.70;98087.63;5057544;28;20041;-79
2020/12/10 06:32:06;;;;;;;37.80;15.33;;;;;;;-0.33;89.10;98082.28;5059347;28;20053;-79
2020/12/10 06:34:38;;;;;;;39.53;15.87;;;;;;;-0.12;89.04;98119.50;5057696;28;20074;-79
2020/12/10 06:37:27;;;;;;;35.93;15.03;;;;;;;-0.14;89.60;98125.97;5057336;28;20447;-79
2020/12/10 06:39:56;;;;;;;40.30;17.10;;;;;;;-0.28;89.21;98109.41;5057953;28;20060;-79
2020/12/10 06:42:23;;;;;;;33.27;15.37;;;;;;;-0.27;89.63;98116.44;5057883;28;20048;-80
2020/12/10 06:44:49;;;;;;;39.87;14.70;;;;;;;-0.29;89.89;98107.69;5058511;28;20052;-79
2020/12/10 06:47:16;;;;;;;34.30;14.50;;;;;;;-0.16;89.74;98120.78;5057585;28;20074;-79
2020/12/10 06:49:43;;;;;;;36.23;15.23;;;;;;;-0.38;90.26;98095.22;5057992;28;20056;-79
2020/12/10 06:52:12;;;;;;;44.43;16.17;;;;;;;-0.23;89.98;98128.50;5057147;28;21047;-79
2020/12/10 06:55:10;;;;;;;44.00;16.47;;;;;;;-0.32;89.19;98107.16;5061180;28;20443;-79
2020/12/10 06:57:58;;;;;;;34.20;14.67;;;;;;;-0.15;89.37;98126.94;5054569;28;20068;-79
2020/12/10 07:00:41;;;;;;;38.90;15.03;;;;;;;-0.23;89.12;98128.50;5063887;28;20060;-79
2020/12/10 07:03:15;;;;;;;36.33;15.23;;;;;;;-0.32;89.01;98104.47;5057175;28;20103;-79
2020/12/10 07:05:42;;;;;;;36.63;15.80;;;;;;;-0.15;89.01;98134.97;5059768;28;20052;-79
2020/12/10 07:08:10;;;;;;;43.73;15.67;;;;;;;-0.28;89.13;98121.91;5065204;28;21621;-79
2020/12/10 07:10:42;;;;;;;40.23;15.97;;;;;;;-0.21;88.86;98118.53;5056531;28;20090;-79
2020/12/10 07:13:09;;;;;;;42.03;16.20;;;;;;;-0.06;88.63;98134.09;5055723;28;20110;-79
2020/12/10 07:15:35;;;;;;;35.87;15.93;;;;;;;-0.34;88.83;98107.31;5056838;28;20064;-79
2020/12/10 07:18:04;;;;;;;37.07;15.43;;;;;;;-0.29;88.94;98121.06;5056567;28;20075;-79
2020/12/10 07:20:32;;;;;;;32.80;13.70;;;;;;;-0.27;89.84;98137.81;5056789;28;20056;-79
2020/12/10 07:23:00;;;;;;;33.77;15.17;;;;;;;-0.41;89.92;98115.00;5057590;28;20045;-79
2020/12/10 07:25:27;;;;;;;38.37;16.20;;;;;;;-0.24;89.50;98139.31;5056644;28;20052;-79
2020/12/10 07:27:53;;;;;;;30.37;15.50;;;;;;;-0.27;89.88;98120.91;5056688;28;20076;-79
2020/12/10 07:30:23;;;;;;;35.10;15.17;;;;;;;-0.16;89.01;98130.63;5057863;28;20068;-79
2020/12/10 07:32:53;;;;;;;42.50;15.63;;;;;;;-0.31;90.04;98112.34;5055142;28;20076;-79
2020/12/10 07:35:26;;;;;;;;;;;;;;;-0.12;89.14;98143.56;5051140;28;20523;-80
2020/12/10 07:37:52;;;;;;;28.87;13.47;;;;;;;-0.14;90.06;98137.50;5059066;28;20385;-79
2020/12/10 07:40:20;;;;;;;33.63;15.60;;;;;;;-0.21;89.71;98123.88;5063978;28;20447;-78
2020/12/10 07:42:46;;;;;;;36.50;16.23;;;;;;;-0.21;90.31;98123.00;5050260;28;20207;-79
2020/12/10 07:45:14;;;;;;;32.53;14.17;;;;;;;-0.16;89.17;98128.78;5054389;28;20049;-78
2020/12/10 07:47:41;;;;;;;34.60;14.93;;;;;;;-0.15;89.40;98132.28;5057799;28;20107;-78
2020/12/10 07:50:20;;;;;;;33.00;14.83;;;;;;;-0.06;89.01;98136.78;5063154;28;20049;-78
2020/12/10 07:52:47;;;;;;;34.63;14.43;;;;;;;-0.04;89.66;98134.81;5055094;28;20045;-78
2020/12/10 07:55:17;;;;;;;34.83;14.13;;;;;;;-0.10;89.26;98119.38;5060543;28;20048;-78
2020/12/10 07:57:52;;;;;;;37.10;15.70;;;;;;;0.00;88.58;98125.56;5061073;28;20073;-78
2020/12/10 08:00:23;;;;;;;40.03;15.97;;;;;;;0.04;87.99;98118.91;5047941;28;20106;-78
2020/12/10 08:03:04;;;;;;;37.27;15.40;;;;;;;0.10;88.16;98129.03;5062831;28;20553;-79
2020/12/10 08:05:30;;;;;;;36.90;15.60;;;;;;;0.12;87.92;98131.53;5059993;28;20048;-78
2020/12/10 08:07:57;;;;;;;39.90;16.47;;;;;;;0.01;88.32;98129.06;5060347;28;20083;-78
2020/12/10 08:10:26;;;;;;;36.53;15.43;;;;;;;0.08;88.71;98135.50;5064361;28;20044;-78
2020/12/10 08:13:13;;;;;;;41.70;16.47;;;;;;;0.01;87.58;98116.53;5046347;28;20059;-78
2020/12/10 08:15:40;;;;;;;37.40;16.73;;;;;;;0.09;87.52;98127.34;5051876;28;20123;-79
2020/12/10 08:18:09;;;;;;;39.00;15.90;;;;;;;0.20;87.82;98128.16;5058295;28;20052;-78
2020/12/10 08:20:41;;;;;;;37.40;15.83;;;;;;;0.23;86.49;98138.59;5053165;28;20444;-78
2020/12/10 08:23:08;;;;;;;33.23;14.27;;;;;;;0.06;88.06;98133.00;5066794;28;20049;-78
2020/12/10 08:25:36;;;;;;;41.77;16.27;;;;;;;0.20;87.83;98138.84;5069903;28;20121;-78
2020/12/10 08:28:05;;;;;;;44.93;16.20;;;;;;;0.22;87.72;98137.72;5052526;28;20044;-78
2020/12/10 08:30:32;;;;;;;43.67;17.53;;;;;;;0.13;88.14;98138.59;5059648;28;20052;-78
2020/12/10 08:33:00;;;;;;;39.10;15.63;;;;;;;0.17;88.11;98140.00;5065888;28;20057;-78
2020/12/10 08:35:27;;;;;;;42.97;16.23;;;;;;;0.04;88.33;98118.91;5059891;28;20124;-78
2020/12/10 08:37:53;;;;;;;34.17;14.87;;;;;;;0.00;88.95;98117.53;5059492;28;20390;-78
2020/12/10 08:40:25;;;;;;;30.80;13.47;;;;;;;0.12;88.03;98131.53;5062139;28;20044;-78
2020/12/10 08:42:51;;;;;;;30.10;14.17;;;;;;;0.27;87.59;98139.97;5057960;28;20045;-78
2020/12/10 08:45:34;;;;;;;33.53;13.17;;;;;;;0.28;87.63;98136.31;5063907;28;20440;-78
2020/12/10 08:48:02;;;;;;;39.20;14.50;;;;;;;0.16;88.71;98123.09;5059395;28;20141;-78
2020/12/10 08:50:29;;;;;;;30.43;12.90;;;;;;;0.31;87.56;98133.34;5057437;28;20083;-79
2020/12/10 08:53:07;;;;;;;28.53;12.63;;;;;;;0.18;86.83;98093.53;5069551;28;20448;-78
2020/12/10 08:55:41;;;;;;;31.27;12.93;;;;;;;0.37;85.81;98130.09;5064245;28;20053;-79
2020/12/10 08:58:08;;;;;;;30.73;14.00;;;;;;;0.35;86.36;98113.34;5066680;28;20106;-78
2020/12/10 09:00:38;;;;;;;29.47;13.53;;;;;;;0.38;86.71;98122.91;5060060;28;20114;-78
2020/12/10 09:03:04;;;;;;;38.63;14.07;;;;;;;0.41;85.96;98123.47;5065215;28;20485;-78
2020/12/10 09:05:31;;;;;;;30.70;12.67;;;;;;;0.43;86.98;98126.81;5064481;28;20052;-79
2020/12/10 09:07:57;;;;;;;35.13;13.40;;;;;;;0.30;86.49;98119.13;5061793;28;20052;-78
2020/12/10 09:10:27;;;;;;;28.80;12.97;;;;;;;0.37;85.92;98119.38;5067019;28;20040;-78
2020/12/10 09:12:54;;;;;;;28.13;13.53;;;;;;;0.29;86.65;98117.44;5060304;28;20130;-77
2020/12/10 09:15:20;;;;;;;24.63;12.00;;;;;;;0.40;86.94;98123.63;5065465;28;20045;-78
2020/12/10 09:17:47;;;;;;;29.90;12.47;;;;;;;0.30;85.63;98111.13;5067773;28;20110;-79
2020/12/10 09:20:13;;;;;;;29.63;10.87;;;;;;;0.51;85.34;98128.75;5058746;28;20126;-78
2020/12/10 09:22:40;;;;;;;23.03;10.97;;;;;;;0.48;84.89;98113.88;5056872;28;20128;-78
2020/12/10 09:25:06;;;;;;;27.03;12.03;;;;;;;0.45;87.19;98113.31;5058905;28;20049;-78
2020/12/10 09:27:33;;;;;;;25.27;11.93;;;;;;;0.52;86.82;98106.38;5059107;28;20049;-78
2020/12/10 09:29:59;;;;;;;30.87;12.93;;;;;;;0.53;86.16;98097.38;5060087;28;20048;-78
2020/12/10 09:32:25;;;;;;;29.40;12.97;;;;;;;0.63;85.87;98094.66;5062886;28;20102;-78
2020/12/10 09:34:53;;;;;;;33.10;12.77;;;;;;;0.69;87.55;98119.00;5062652;28;20044;-79
2020/12/10 09:37:19;;;;;;;25.53;12.30;;;;;;;0.60;85.23;98097.63;5063017;28;20052;-79
2020/12/10 09:39:48;;;;;;;25.37;10.90;;;;;;;0.60;86.45;98101.13;5060563;28;20056;-78
2020/12/10 09:42:15;;;;;;;28.90;12.83;;;;;;;0.64;86.49;98128.44;5059575;28;20443;-78
2020/12/10 09:44:42;;;;;;;30.97;13.50;;;;;;;0.56;87.00;98097.09;5044017;28;20048;-78
2020/12/10 09:47:10;;;;;;;27.20;13.07;;;;;;;0.66;87.13;98099.69;5064030;28;20410;-79
2020/12/10 10:03:06;;;;;;;18.47;10.00;;;;;;;0.73;84.37;98116.03;5057155;28;20036;-79
2020/12/10 10:05:33;;;;;;;22.53;9.97;;;;;;;0.81;83.76;98113.44;5061601;28;20049;-79
2020/12/10 10:08:30;;;;;;;21.67;10.43;;;;;;;0.82;84.40;98123.16;5061502;28;20052;-79
2020/12/10 10:10:56;;;;;;;22.67;10.77;;;;;;;0.64;84.87;98101.69;5064532;28;20079;-79
2020/12/10 10:13:22;;;;;;;25.13;10.77;;;;;;;0.71;85.33;98108.16;5058865;28;20493;-79
2020/12/10 10:15:49;;;;;;;25.73;11.30;;;;;;;0.61;87.09;98100.16;5058410;28;20067;-79
2020/12/10 10:18:16;;;;;;;26.33;10.90;;;;;;;0.66;86.26;98087.19;5063578;28;20045;-79
2020/12/10 10:20:43;;;;;;;24.83;8.40;;;;;;;0.70;84.45;98104.59;5059675;28;20041;-79
2020/12/10 10:23:09;;;;;;;24.30;10.53;;;;;;;0.62;84.71;98099.16;5058885;28;20049;-79
2020/12/10 10:25:35;;;;;;;21.25;9.43;;;;;;;0.49;84.80;98075.41;5056603;28;20044;-79
2020/12/10 10:28:02;;;;;;;23.47;10.93;;;;;;;0.79;83.87;98102.88;5063987;28;20095;-79
2020/12/10 10:30:28;;;;;;;24.40;10.73;;;;;;;0.79;83.55;98086.81;5068951;28;20052;-79
2020/12/10 10:32:54;;;;;;;23.93;9.63;;;;;;;0.83;81.86;98095.41;5060096;28;20045;-79
2020/12/10 10:35:23;;;;;;;22.47;10.10;;;;;;;0.81;83.11;98114.28;5058836;28;20040;-79
2020/12/10 10:37:50;;;;;;;26.30;10.17;;;;;;;0.85;82.58;98086.22;5053657;28;20053;-79
2020/12/10 10:40:16;;;;;;;24.17;9.53;;;;;;;0.86;83.05;98089.75;5064747;28;20390;-79
2020/12/10 10:42:43;;;;;;;25.03;9.30;;;;;;;0.74;83.17;98081.09;5057137;28;20076;-79
2020/12/10 10:45:11;;;;;;;26.43;10.40;;;;;;;0.86;82.98;98098.63;5058909;28;20056;-79
2020/12/10 10:47:37;;;;;;;26.07;10.17;;;;;;;0.78;83.49;98097.69;5063468;28;20143;-78
2020/12/10 10:50:04;;;;;;;25.83;10.47;;;;;;;0.67;84.54;98075.47;5058132;28;20052;-79
2020/12/10 10:52:31;;;;;;;20.97;9.53;;;;;;;0.79;84.81;98083.31;5061682;28;20052;-79
2020/12/10 11:09:09;;;;;;;13.60;5.73;;;;;;;0.75;81.63;98080.09;5051606;28;20082;-79
2020/12/10 11:11:44;;;;;;;11.27;6.17;;;;;;;0.98;80.70;98074.31;5055503;28;20083;-79
2020/12/10 11:14:10;;;;;;;16.40;7.47;;;;;;;1.09;80.78;98059.91;5062976;28;20048;-79
2020/12/10 11:16:36;;;;;;;15.00;7.30;;;;;;;1.13;79.90;98040.69;5065490;28;20044;-78
2020/12/10 11:19:03;;;;;;;18.83;8.27;;;;;;;1.16;79.81;98044.88;5058174;28;20063;-79
2020/12/10 11:35:00;;;;;;;14.87;7.00;;;;;;;1.31;78.54;98059.44;5055318;28;20044;-78
2020/12/10 11:37:26;;;;;;;12.25;6.40;;;;;;;1.47;79.62;98066.75;5055531;28;20485;-78
2020/12/10 11:39:54;;;;;;;14.30;7.18;;;;;;;1.33;79.93;98040.53;5061516;28;20057;-79
2020/12/10 11:42:21;;;;;;;15.60;6.53;;;;;;;1.55;80.02;98066.00;5062199;28;21514;-79
2020/12/10 11:45:04;;;;;;;13.70;6.85;;;;;;;1.72;78.88;98070.50;5053559;28;20079;-79
2020/12/10 11:47:30;;;;;;;12.68;5.43;;;;;;;1.66;78.11;98062.25;5060793;28;20056;-79
2020/12/10 11:49:56;;;;;;;10.67;6.07;;;;;;;1.74;77.13;98064.97;5058241;28;20064;-79
2020/12/10 11:52:23;;;;;;;9.52;5.75;;;;;;;1.70;77.06;98053.75;5046142;28;20067;-81
2020/12/10 12:08:39;;;;;;;11.43;5.60;;;;;;;1.80;75.99;98052.81;5058240;28;20117;-78
2020/12/10 12:11:06;;;;;;;11.13;5.28;;;;;;;1.55;76.78;98047.25;5056378;28;20045;-79
2020/12/10 12:13:34;;;;;;;9.68;5.22;;;;;;;1.63;76.86;98030.41;5055891;28;20045;-78
2020/12/10 12:16:02;;;;;;;9.38;5.00;;;;;;;1.70;77.50;98032.31;5054427;28;20041;-79
2020/12/10 12:18:28;;;;;;;10.73;5.47;;;;;;;1.55;76.31;98015.97;5062143;28;20045;-79
2020/12/10 12:20:55;;;;;;;12.75;6.07;;;;;;;1.57;77.38;98005.91;5054302;28;20082;-79